Shelburn, Indiana
Current Conditions -  °F | °C
As of 6:55 AM on Saturday 22 Nov 2014 (Local Time) from KRSV Reporting Station
Broken Clouds Broken Clouds  
Wind Chill:   Ceiling: 9500
Heat Index:   Visibility: 10mi
Dew Point:   Wind: 9mph
Humidity: 70%   Direction: 190°S
Pressure: 30.2"   Gusts: NA
Location:  39.18°N, 87.39°W
Report Text: KRSV 221155Z AUTO 19008KT 10SM SCT060 BKN095 05/00 A3020 RMK AO2 T00500000 10050 20023
Loading
Personal Weather Stations






























Interactive Weather Map New forecast layout! Learn more

10-Day Weather Forecast

Advertisements
Track Severe Weather on mobile